Flight Track Log - Related Links

Times and Time Zones

All times are in EDT time to prevent confusion due to time zone crossing. See the TAM3445 flight status page for this flight to view local times or setup timezone preferences in your user account.

Time Position Orientation Groundspeed Altitude Reporting Facility
EDT Latitude Longitude Course Direction KTS MPH feet Rate Location/Type
Fri 08:14:00 PM -18.6419 -46.1009 148° Southeast  Level Estimated
Fri 08:15:00 PM -18.7129 -46.0537 148° Southeast  Level Estimated
Fri 08:16:00 PM -18.7840 -46.0065 148° Southeast  Level Estimated
Fri 08:17:00 PM -18.8550 -45.9592 148° Southeast  Level Estimated
Fri 08:18:00 PM -18.9260 -45.9118 148° Southeast  Level Estimated
Fri 08:19:00 PM -18.9970 -45.8645 148° Southeast  Level Estimated
Fri 08:20:00 PM -19.0680 -45.8171 148° Southeast  Level Estimated
Fri 08:21:00 PM -19.1390 -45.7696 148° Southeast  Level Estimated
Fri 08:22:00 PM -19.2099 -45.7222 148° Southeast  Level Estimated
Fri 08:23:00 PM -19.2809 -45.6746 148° Southeast  Level Estimated
Fri 08:24:00 PM -19.3518 -45.6271 148° Southeast  Level Estimated
Fri 08:25:00 PM -19.4227 -45.5795 148° Southeast  Level Estimated
Fri 08:26:00 PM -19.4936 -45.5318 148° Southeast  Level Estimated
Fri 08:27:00 PM -19.5645 -45.4841 148° Southeast  Level Estimated
Fri 08:28:00 PM -19.6354 -45.4364 148° Southeast  Level Estimated
Fri 08:29:00 PM -19.7063 -45.3886 148° Southeast  Level Estimated
Fri 08:30:00 PM -19.7771 -45.3408 148° Southeast  Level Estimated
Fri 08:31:00 PM -19.8480 -45.2930 148° Southeast  Level Estimated
Fri 08:32:00 PM -19.9188 -45.2451 148° Southeast  Level Estimated
Fri 08:33:00 PM -19.9897 -45.1971 148° Southeast  Level Estimated
Fri 08:34:00 PM -20.0605 -45.1492 148° Southeast  Level Estimated
Fri 08:35:00 PM -20.1313 -45.1011 148° Southeast  Level Estimated
Fri 08:36:00 PM -20.2020 -45.0531 147° Southeast  Level Estimated
Fri 08:37:00 PM -20.2728 -45.0049 147° Southeast  Level Estimated
Fri 08:38:00 PM -20.3436 -44.9568 147° Southeast  Level Estimated
Fri 08:39:00 PM -20.4143 -44.9086 147° Southeast  Level Estimated
Fri 08:40:00 PM -20.4850 -44.8603 147° Southeast  Level Estimated
Fri 08:41:00 PM -20.5558 -44.8120 147° Southeast  Level Estimated
Fri 08:42:00 PM -20.6265 -44.7637 147° Southeast  Level Estimated
Fri 08:43:00 PM -20.6971 -44.7153 147° Southeast  Level Estimated
Fri 08:44:00 PM -20.7678 -44.6669 147° Southeast  Level Estimated
Fri 08:45:00 PM -20.8385 -44.6184 147° Southeast  Level Estimated
Fri 08:46:00 PM -20.9091 -44.5699 147° Southeast  Level Estimated
Fri 08:47:00 PM -20.9798 -44.5213 147° Southeast  Level Estimated
Fri 08:48:00 PM -21.0504 -44.4727 147° Southeast  Level Estimated
Fri 08:49:00 PM -21.1210 -44.4241 147° Southeast  Level Estimated
Fri 08:50:00 PM -21.1916 -44.3754 147° Southeast  Level Estimated
Fri 08:51:00 PM -21.2622 -44.3266 147° Southeast  Level Estimated
Fri 08:52:00 PM -21.3328 -44.2778 147° Southeast  Level Estimated
Fri 08:53:00 PM -21.4033 -44.2290 147° Southeast  Level Estimated
Fri 08:54:00 PM -21.4738 -44.1801 147° Southeast  Level Estimated
Fri 08:55:00 PM -21.5444 -44.1312 147° Southeast  Level Estimated
Fri 08:56:00 PM -21.6149 -44.0822 147° Southeast  Level Estimated
Fri 08:57:00 PM -21.6854 -44.0331 147° Southeast  Level Estimated
Fri 08:58:00 PM -21.7558 -43.9841 147° Southeast  Level Estimated
Fri 08:59:00 PM -21.8263 -43.9349 147° Southeast  Level Estimated
Fri 09:00:00 PM -21.8968 -43.8858 147° Southeast  Level Estimated
Fri 09:01:00 PM -21.9672 -43.8365 147° Southeast  Level Estimated
Fri 09:02:00 PM -22.0376 -43.7873 147° Southeast  Level Estimated
Fri 09:03:00 PM -22.1080 -43.7379 147° Southeast  Level Estimated
Fri 09:04:00 PM -22.1784 -43.6886 147° Southeast  Level Estimated
Fri 09:05:00 PM -22.2488 -43.6391 147° Southeast  Level Estimated
Fri 09:06:00 PM -22.3192 -43.5897 147° Southeast  Level Estimated
Fri 09:07:00 PM -22.3895 -43.5402 147° Southeast  Level Estimated
Fri 09:08:00 PM -22.4598 -43.4906 147° Southeast  Level Estimated
Fri 09:09:00 PM -22.5302 -43.4410 147° Southeast  Level Estimated
Fri 09:10:00 PM -22.6005 -43.3913 147° Southeast  Level Estimated
Fri 09:11:00 PM -22.6707 -43.3416 147° Southeast  Level Estimated
Fri 09:12:00 PM -22.7410 -43.2918 147° Southeast  Level Estimated
Fri 09:13:00 PM -22.8089 -43.2436 147° Southeast  Level Estimated
Fri 09:14:00 PM -22.8089 -43.2436 137° Southeast  Level Estimated
Fri 09:15:00 PM -22.8089 -43.2436 137° Southeast  Level Estimated
Fri 09:16:00 PM -22.8089 -43.2436 137° Southeast  Level Estimated
Fri 09:17:00 PM -22.8089 -43.2436 137° Southeast  Level Estimated
Fri 09:18:00 PM -22.8089 -43.2436 137° Southeast  Level Estimated
Fri 09:19:00 PM -22.8089 -43.2436 137° Southeast  Level Estimated
Fri 09:20:00 PM -22.8089 -43.2436 137° Southeast  Level Estimated
Fri 09:21:00 PM -22.8089 -43.2436 137° Southeast  Level Estimated
Fri 09:22:00 PM -22.8089 -43.2436 137° Southeast  Level Estimated
Fri 09:23:00 PM -22.8089 -43.2436 137° Southeast  Level Estimated
Fri 09:24:00 PM -22.8089 -43.2436 137° Southeast  Level Estimated
Fri 09:25:00 PM -22.8089 -43.2436 137° Southeast  Level Estimated
Fri 09:26:00 PM -22.8089 -43.2436 137° Southeast  Level Estimated
Fri 09:27:00 PM -22.8089 -43.2436 137° Southeast  Level Estimated
Fri 09:28:00 PM -22.8089 -43.2436 137° Southeast  Level Estimated

Login

Don't have an account? Register now (free) for customized features, flight alerts, and more!